Time;durP1;ratioP1;P1;durP2;ratioP2;P2;SDS_P1;SDS_P2;PMS_P1;PMS_P2;Temp;Humidity;BMP_temperature;BMP_pressure;BME280_temperature;BME280_humidity;BME280_pressure;Samples;Min_cycle;Max_cycle;Signal;HPM_P1;HPM_P2
2022/12/06 00:02:25;;;;;;;7.43;3.77;;;;;;;-143.84;91.27;45161.41;5111609;28;20954;-75
2022/12/06 00:04:54;;;;;;;7.83;4.23;;;;;;;-143.84;91.41;45151.91;5111981;28;20442;-75
2022/12/06 00:07:21;;;;;;;6.20;3.43;;;;;;;-143.84;91.26;45189.97;5111484;28;21032;-75
2022/12/06 00:09:48;;;;;;;5.10;4.20;;;;;;;-143.84;91.23;45180.47;5111986;28;20440;-74
2022/12/06 00:12:15;;;;;;;6.30;4.40;;;;;;;-143.84;91.35;45203.31;5111576;28;20446;-75
2022/12/06 00:14:43;;;;;;;13.13;3.83;;;;;;;-143.84;91.22;45188.06;5111797;28;20446;-75
2022/12/06 00:17:10;;;;;;;6.60;3.90;;;;;;;-143.84;91.00;45178.56;5111300;28;20449;-75
2022/12/06 00:19:37;;;;;;;3.47;3.03;;;;;;;-143.84;91.22;45174.75;5111506;28;20949;-75
2022/12/06 00:22:05;;;;;;;5.73;3.43;;;;;;;-143.84;91.05;45193.78;5111637;28;20491;-75
2022/12/06 00:24:35;;;;;;;8.53;4.00;;;;;;;-143.84;90.82;45186.16;5111212;28;20992;-75
2022/12/06 00:27:02;;;;;;;9.37;3.23;;;;;;;-143.84;90.85;45205.22;5110842;28;20485;-75
2022/12/06 00:29:29;;;;;;;10.53;3.43;;;;;;;-143.84;90.63;45186.16;5111376;28;20437;-74
2022/12/06 00:31:56;;;;;;;7.97;4.23;;;;;;;-143.84;90.76;45165.22;5111220;28;20438;-75
2022/12/06 00:34:23;;;;;;;3.67;3.37;;;;;;;-143.84;90.83;45188.06;5110917;28;20862;-75
2022/12/06 00:36:50;;;;;;;9.83;3.30;;;;;;;-143.84;91.10;45193.78;5111321;28;20809;-75
2022/12/06 00:39:19;;;;;;;4.77;3.17;;;;;;;-143.84;91.05;45176.66;5111087;28;20450;-75
2022/12/06 00:41:46;;;;;;;4.63;3.03;;;;;;;-143.84;91.26;45184.25;5111171;28;20487;-75
2022/12/06 00:44:14;;;;;;;6.93;3.20;;;;;;;-143.84;90.87;45186.16;5110816;28;20435;-75
2022/12/06 00:46:41;;;;;;;14.13;3.67;;;;;;;-143.84;91.10;45199.50;5110896;28;20903;-75
2022/12/06 00:49:09;;;;;;;3.30;2.70;;;;;;;-143.84;91.08;45170.94;5110920;28;20515;-75
2022/12/06 00:51:37;;;;;;;6.30;2.83;;;;;;;-143.84;90.89;45191.88;5110897;28;20453;-75
2022/12/06 00:54:05;;;;;;;6.20;3.30;;;;;;;-143.84;91.04;45210.94;5110707;28;20500;-75
2022/12/06 00:56:35;;;;;;;11.20;3.70;;;;;;;-143.84;90.67;45180.47;5110793;28;20480;-75
2022/12/06 00:59:02;;;;;;;6.40;3.40;;;;;;;-143.84;90.56;45178.56;5110923;28;20503;-75
2022/12/06 01:01:32;;;;;;;9.13;3.87;;;;;;;-143.84;90.59;45184.25;5110484;28;20443;-75
2022/12/06 01:04:01;;;;;;;9.23;3.60;;;;;;;-143.84;90.47;45159.50;5110493;28;20439;-75
2022/12/06 01:06:31;;;;;;;12.33;4.53;;;;;;;-143.84;90.55;45191.88;5110418;28;20442;-75
2022/12/06 01:09:00;;;;;;;7.13;3.53;;;;;;;-143.84;90.69;45161.41;5110559;28;20482;-75
2022/12/06 01:11:29;;;;;;;12.63;3.87;;;;;;;-143.84;90.27;45203.31;5110037;28;20453;-74
2022/12/06 01:13:58;;;;;;;6.57;3.40;;;;;;;-143.84;90.18;45189.97;5110445;28;20445;-75
2022/12/06 01:16:27;;;;;;;10.50;3.40;;;;;;;-143.84;90.14;45203.31;5110369;28;20442;-75
2022/12/06 01:18:56;;;;;;;5.33;3.30;;;;;;;-143.84;90.47;45186.16;5110225;28;20431;-74
2022/12/06 01:21:24;;;;;;;9.53;3.50;;;;;;;-143.84;90.12;45197.59;5110202;28;20441;-75
2022/12/06 01:23:53;;;;;;;6.10;3.50;;;;;;;-143.84;89.98;45176.66;5110370;28;20466;-74
2022/12/06 01:26:22;;;;;;;5.80;3.10;;;;;;;-143.84;90.21;45186.16;5110378;28;20493;-74
2022/12/06 01:28:50;;;;;;;9.63;4.03;;;;;;;-143.84;90.04;45189.97;5110007;28;20531;-75
2022/12/06 01:31:19;;;;;;;5.70;3.17;;;;;;;-143.84;89.80;45189.97;5109945;28;20498;-74
2022/12/06 01:33:46;;;;;;;5.40;3.23;;;;;;;-143.84;90.01;45201.41;5110000;28;21095;-75
2022/12/06 01:36:18;;;;;;;7.57;3.50;;;;;;;-143.84;90.12;45199.50;5109829;28;20503;-75
2022/12/06 01:38:49;;;;;;;5.17;3.20;;;;;;;-143.84;90.17;45188.06;5109848;28;20442;-74
2022/12/06 01:41:16;;;;;;;5.53;3.70;;;;;;;-143.84;90.09;45212.84;5110279;28;20439;-75
2022/12/06 01:43:44;;;;;;;7.10;3.33;;;;;;;-143.84;90.35;45209.03;5110182;28;20509;-75
2022/12/06 01:46:27;;;;;;;5.00;3.50;;;;;;;-143.84;90.30;45161.41;5109971;28;20450;-75
2022/12/06 01:48:59;;;;;;;3.70;2.83;;;;;;;-143.84;89.98;45184.25;5109840;28;20489;-75
2022/12/06 01:51:26;;;;;;;14.60;3.33;;;;;;;-143.84;90.28;45186.16;5110220;28;20446;-75
2022/12/06 01:53:55;;;;;;;4.77;2.93;;;;;;;-143.84;90.29;45184.25;5109916;28;20443;-75
2022/12/06 01:56:23;;;;;;;11.93;3.53;;;;;;;-143.84;90.21;45174.75;5109772;28;20453;-75
2022/12/06 01:58:53;;;;;;;8.13;3.20;;;;;;;-143.84;90.10;45189.97;5109872;28;20495;-75
2022/12/06 02:01:22;;;;;;;3.70;2.70;;;;;;;-143.84;90.32;45167.13;5109574;28;20496;-75
2022/12/06 02:03:50;;;;;;;6.20;2.90;;;;;;;-143.84;90.11;45189.97;5109638;28;20446;-75
2022/12/06 02:06:17;;;;;;;6.10;2.73;;;;;;;-143.84;89.81;45205.22;5109598;28;20443;-74
2022/12/06 02:08:46;;;;;;;5.93;3.30;;;;;;;-143.84;89.89;45189.97;5109719;28;20486;-75
2022/12/06 02:11:13;;;;;;;3.63;2.40;;;;;;;-143.84;89.72;45209.03;5109657;28;20450;-74
2022/12/06 02:13:41;;;;;;;3.23;2.57;;;;;;;-143.84;90.07;45199.50;5109624;28;20438;-74
2022/12/06 02:16:21;;;;;;;5.10;2.50;;;;;;;-143.84;89.68;45195.69;5109362;28;20430;-75
2022/12/06 02:18:54;;;;;;;4.27;2.53;;;;;;;-143.84;89.56;45214.72;5109575;28;20779;-75
2022/12/06 02:21:32;;;;;;;6.40;2.40;;;;;;;-143.84;89.27;45222.34;5109723;28;20431;-75
2022/12/06 02:24:38;;;;;;;26.17;2.77;;;;;;;-143.84;89.68;45188.06;5112741;28;21304;-75
2022/12/06 02:27:26;;;;;;;6.13;1.93;;;;;;;-143.84;89.49;45189.97;5112926;28;20860;-75
2022/12/06 02:30:17;;;;;;;6.00;2.97;;;;;;;-143.84;89.21;45207.13;5113168;28;20457;-75
2022/12/06 02:32:51;;;;;;;6.80;2.53;;;;;;;-143.84;89.40;45212.84;5109393;28;21244;-75
2022/12/06 02:35:27;;;;;;;3.00;2.17;;;;;;;-143.84;89.09;45216.63;5113836;28;21035;-75
2022/12/06 02:38:03;;;;;;;7.13;2.50;;;;;;;-143.84;89.10;45216.63;5113498;28;20963;-75
2022/12/06 02:40:35;;;;;;;3.17;2.87;;;;;;;-143.84;88.76;45205.22;5113438;28;20750;-75
2022/12/06 02:43:07;;;;;;;3.80;1.50;;;;;;;-143.84;88.73;45222.34;5113172;28;21004;-75
2022/12/06 02:45:40;;;;;;;8.33;2.63;;;;;;;-143.84;88.80;45228.06;5113573;28;20928;-75
2022/12/06 02:48:10;;;;;;;7.43;2.03;;;;;;;-143.84;88.68;45205.22;5113329;28;20547;-75
2022/12/06 02:50:40;;;;;;;3.27;1.77;;;;;;;-143.84;88.83;45224.25;5113399;28;20442;-75
2022/12/06 02:53:14;;;;;;;2.17;1.87;;;;;;;-143.84;88.51;45228.06;5113434;28;20434;-75
2022/12/06 02:55:42;;;;;;;1.57;1.47;;;;;;;-143.84;88.47;45254.72;5113079;28;20447;-75
2022/12/06 02:58:10;;;;;;;3.40;2.20;;;;;;;-143.84;88.31;45231.88;5113182;28;20459;-75
2022/12/06 03:00:39;;;;;;;1.83;1.73;;;;;;;-143.84;88.25;45220.44;5113286;28;20437;-75
2022/12/06 03:03:52;;;;;;;5.10;1.63;;;;;;;-143.84;88.16;45197.59;5112865;28;20956;-75
2022/12/06 03:06:46;;;;;;;6.13;1.80;;;;;;;-143.84;88.19;45207.13;5113215;28;20442;-75
2022/12/06 03:09:25;;;;;;;7.00;2.03;;;;;;;-143.84;88.36;45216.63;5113167;28;20497;-75
2022/12/06 03:11:59;;;;;;;3.33;1.93;;;;;;;-143.84;88.27;45229.97;5113003;28;20434;-75
2022/12/06 03:14:32;;;;;;;3.73;1.93;;;;;;;-143.84;87.78;45273.78;5112862;28;20440;-75
2022/12/06 03:17:06;;;;;;;5.37;1.83;;;;;;;-143.84;88.04;45210.94;5112729;28;20871;-75
2022/12/06 03:19:38;;;;;;;5.40;2.40;;;;;;;-143.84;88.10;45222.34;5113010;28;20446;-74
2022/12/06 03:22:11;;;;;;;2.97;1.70;;;;;;;-143.84;88.13;45214.72;5112935;28;20458;-75
2022/12/06 03:24:42;;;;;;;4.00;2.07;;;;;;;-143.84;87.92;45205.22;5112543;28;21001;-75
2022/12/06 03:27:12;;;;;;;3.70;1.97;;;;;;;-143.84;88.02;45241.41;5111759;28;20550;-75
2022/12/06 03:29:43;;;;;;;8.67;2.27;;;;;;;-143.84;87.60;45243.31;5111366;28;20496;-75
2022/12/06 03:32:14;;;;;;;4.87;2.53;;;;;;;-143.84;87.80;45231.88;5111475;28;20438;-75
2022/12/06 03:34:47;;;;;;;2.47;2.27;;;;;;;-143.84;87.48;45231.88;5111157;28;20446;-75
2022/12/06 03:37:19;;;;;;;3.07;1.67;;;;;;;-143.84;87.41;45245.19;5111044;28;20500;-75
2022/12/06 03:39:50;;;;;;;1.83;1.47;;;;;;;-143.84;87.26;45218.53;5111323;28;20458;-75
2022/12/06 03:42:18;;;;;;;2.03;1.83;;;;;;;-143.84;87.32;45239.50;5111090;28;20446;-75
2022/12/06 03:44:47;;;;;;;2.00;1.80;;;;;;;-143.84;87.20;45233.78;5111161;28;20446;-75
2022/12/06 03:47:21;;;;;;;4.10;2.03;;;;;;;-143.84;86.80;45226.16;5111255;28;20434;-75
2022/12/06 03:49:55;;;;;;;2.77;2.13;;;;;;;-143.84;86.64;45247.09;5110904;28;20534;-74
2022/12/06 03:52:23;;;;;;;1.97;1.80;;;;;;;-143.84;86.96;45229.97;5111038;28;20487;-75
2022/12/06 03:54:50;;;;;;;2.60;2.20;;;;;;;-143.84;86.94;45220.44;5111016;28;20442;-75
2022/12/06 03:57:17;;;;;;;3.77;1.97;;;;;;;-143.84;87.09;45214.72;5110762;28;20465;-74
2022/12/06 03:59:45;;;;;;;2.13;1.80;;;;;;;-143.84;87.05;45241.41;5111278;28;20481;-75
2022/12/06 04:02:12;;;;;;;10.73;1.63;;;;;;;-143.84;87.30;45241.41;5110760;28;20511;-75
2022/12/06 04:04:40;;;;;;;3.33;2.40;;;;;;;-143.84;87.08;45209.03;5110965;28;20434;-75
2022/12/06 04:07:10;;;;;;;5.90;2.70;;;;;;;-143.84;87.03;45247.09;5110627;28;21238;-75
2022/12/06 04:09:55;;;;;;;5.80;2.03;;;;;;;-143.84;87.01;45243.31;5110669;28;21042;-75
2022/12/06 04:15:09;;;;;;;5.13;2.40;;;;;;;-143.84;87.04;45205.22;5110822;28;20504;-74
2022/12/06 04:20:23;;;;;;;5.33;2.50;;;;;;;-143.84;87.11;45224.25;5110727;28;20439;-75
2022/12/06 04:23:03;;;;;;;3.97;3.00;;;;;;;-143.84;87.55;45212.84;5110500;28;20442;-75
2022/12/06 04:25:30;;;;;;;3.93;2.73;;;;;;;-143.84;87.62;45229.97;5110460;28;20602;-75
2022/12/06 04:38:56;;;;;;;5.27;3.87;;;;;;;-143.84;87.52;45203.31;5111167;28;20498;-75
2022/12/06 04:44:08;;;;;;;6.03;3.60;;;;;;;-143.84;87.69;45226.16;5090813;28;20427;-75
2022/12/06 04:46:35;;;;;;;13.67;3.87;;;;;;;-143.84;87.79;45214.72;5089887;28;20447;-75
2022/12/06 04:49:03;;;;;;;9.93;3.53;;;;;;;-143.84;87.75;45239.50;5090744;28;21117;-75
2022/12/06 04:51:30;;;;;;;3.77;3.47;;;;;;;-143.84;87.77;45205.22;5091105;28;20516;-75
2022/12/06 04:53:58;;;;;;;3.50;3.20;;;;;;;-143.84;87.96;45218.53;5090416;28;20440;-75
2022/12/06 04:56:26;;;;;;;8.30;4.10;;;;;;;-143.84;87.95;45210.94;5092850;28;20525;-75
2022/12/06 04:58:53;;;;;;;5.53;3.53;;;;;;;-143.84;87.89;45229.97;5090584;28;20446;-74
2022/12/06 05:01:20;;;;;;;3.17;2.70;;;;;;;-143.84;87.81;45203.31;5091189;28;20431;-76
2022/12/06 05:03:47;;;;;;;4.20;3.40;;;;;;;-143.84;87.75;45209.03;5090896;28;20459;-74
2022/12/06 05:06:14;;;;;;;16.73;3.53;;;;;;;-143.84;87.72;45220.44;5095982;28;20454;-73
2022/12/06 05:08:41;;;;;;;5.03;3.37;;;;;;;-143.84;87.70;45205.22;5091640;28;20476;-74
2022/12/06 05:11:10;;;;;;;5.40;3.77;;;;;;;-143.84;87.99;45205.22;5090191;28;20504;-74
2022/12/06 05:13:37;;;;;;;4.60;3.50;;;;;;;-143.84;87.87;45186.16;5089778;28;20793;-75
2022/12/06 05:16:07;;;;;;;8.63;4.00;;;;;;;-143.84;88.10;45218.53;5090854;28;20436;-74
2022/12/06 05:18:35;;;;;;;13.13;4.97;;;;;;;-143.84;87.87;45199.50;5072472;28;20437;-73
2022/12/06 05:21:04;;;;;;;11.60;4.80;;;;;;;-143.84;87.82;45209.03;5089772;28;20435;-73
2022/12/06 05:23:31;;;;;;;12.20;4.80;;;;;;;-143.84;87.77;45214.72;5100738;28;20451;-76
2022/12/06 05:26:00;;;;;;;10.33;5.60;;;;;;;-143.84;87.56;45203.31;5110111;28;20442;-74
2022/12/06 05:28:29;;;;;;;7.90;5.13;;;;;;;-143.84;87.85;45228.06;5110898;28;20442;-75
2022/12/06 05:30:56;;;;;;;8.43;4.73;;;;;;;-143.84;87.56;45182.38;5111007;28;20496;-76
2022/12/06 05:33:24;;;;;;;10.23;5.23;;;;;;;-143.84;87.83;45210.94;5110853;28;20464;-77
2022/12/06 05:35:51;;;;;;;9.00;4.53;;;;;;;-143.84;87.73;45186.16;5110848;28;20681;-76
2022/12/06 05:38:18;;;;;;;5.10;4.47;;;;;;;-143.84;87.71;45210.94;5110181;28;20447;-77
2022/12/06 05:40:46;;;;;;;5.50;4.90;;;;;;;-143.84;87.90;45220.44;5110411;28;20441;-76
2022/12/06 05:43:13;;;;;;;5.90;4.30;;;;;;;-143.84;87.87;45224.25;5110508;28;20858;-75
2022/12/06 05:45:42;;;;;;;5.07;3.90;;;;;;;-143.84;87.65;45212.84;5109970;28;20435;-75
2022/12/06 05:48:09;;;;;;;7.40;4.47;;;;;;;-143.84;87.81;45191.88;5110022;28;20948;-75
2022/12/06 05:50:36;;;;;;;9.63;4.30;;;;;;;-143.84;87.74;45201.41;5110425;28;20483;-75
2022/12/06 05:53:04;;;;;;;14.83;6.33;;;;;;;-143.84;87.59;45216.63;5110590;28;20434;-76
2022/12/06 05:55:31;;;;;;;6.70;4.63;;;;;;;-143.84;87.68;45241.41;5110604;28;20427;-76
2022/12/06 05:57:58;;;;;;;11.53;4.27;;;;;;;-143.84;87.67;45222.34;5110136;28;20431;-76
2022/12/06 06:00:25;;;;;;;6.23;4.73;;;;;;;-143.84;88.01;45235.69;5110212;28;20449;-76
2022/12/06 06:02:54;;;;;;;5.93;4.10;;;;;;;-143.84;87.90;45209.03;5109986;28;20953;-76
2022/12/06 06:05:21;;;;;;;8.37;4.77;;;;;;;-143.84;87.50;45235.69;5110449;28;20447;-76
2022/12/06 06:07:49;;;;;;;6.93;5.30;;;;;;;-143.84;87.55;45174.75;5110233;28;20811;-75
2022/12/06 06:10:16;;;;;;;5.53;5.03;;;;;;;-143.84;87.64;45207.13;5109681;28;20528;-76
2022/12/06 06:12:44;;;;;;;5.30;4.80;;;;;;;-143.84;87.76;45216.63;5110218;28;20442;-75
2022/12/06 06:15:12;;;;;;;7.87;5.20;;;;;;;-143.84;87.67;45239.50;5109914;28;20442;-76
2022/12/06 06:17:39;;;;;;;4.80;3.53;;;;;;;-143.84;87.59;45199.50;5109837;28;20871;-76
2022/12/06 06:20:10;;;;;;;10.47;6.90;;;;;;;-143.84;87.50;45235.69;5110101;28;20446;-75
2022/12/06 06:22:39;;;;;;;16.70;7.90;;;;;;;-143.84;87.68;45184.25;5109276;28;20492;-74
2022/12/06 06:25:08;;;;;;;7.60;6.70;;;;;;;-143.84;87.65;45210.94;5109687;28;20447;-75
2022/12/06 06:27:36;;;;;;;5.00;4.50;;;;;;;-143.84;87.70;45235.69;5109497;28;20486;-75
2022/12/06 06:30:05;;;;;;;8.80;5.10;;;;;;;-143.84;87.67;45197.59;5109257;28;20475;-74
2022/12/06 06:32:32;;;;;;;7.97;3.30;;;;;;;-143.84;87.68;45214.72;5109155;28;20439;-74
2022/12/06 06:34:59;;;;;;;7.50;4.03;;;;;;;-143.84;87.66;45209.03;5109202;28;20443;-75
2022/12/06 06:37:28;;;;;;;10.87;4.70;;;;;;;-143.84;87.69;45216.63;5109198;28;20830;-75
2022/12/06 06:39:55;;;;;;;7.40;5.93;;;;;;;-143.84;87.55;45229.97;5108328;28;20460;-75
2022/12/06 06:42:22;;;;;;;8.37;6.10;;;;;;;-143.84;87.53;45222.34;5107885;28;20435;-75
2022/12/06 06:44:50;;;;;;;14.03;7.37;;;;;;;-143.84;87.50;45207.13;5107987;28;20515;-75
2022/12/06 06:47:17;;;;;;;8.77;6.60;;;;;;;-143.84;87.56;45209.03;5107771;28;20435;-75
2022/12/06 06:49:45;;;;;;;19.70;13.27;;;;;;;-143.84;87.59;45247.09;5100581;28;20494;-75
2022/12/06 06:52:12;;;;;;;25.63;14.67;;;;;;;-143.84;87.84;45174.75;5088892;28;20440;-75
2022/12/06 06:54:41;;;;;;;19.00;12.17;;;;;;;-143.84;87.50;45216.63;5090232;28;20505;-74
2022/12/06 06:57:08;;;;;;;13.80;8.30;;;;;;;-143.84;87.63;45226.16;5108228;28;20435;-75
2022/12/06 06:59:35;;;;;;;22.83;10.90;;;;;;;-143.84;87.44;45229.97;5107579;28;20435;-75
2022/12/06 07:02:02;;;;;;;11.73;7.53;;;;;;;-143.84;87.52;45197.59;5108152;28;20436;-74
2022/12/06 07:04:29;;;;;;;9.60;6.73;;;;;;;-143.84;87.48;45210.94;5108455;28;20419;-74
2022/12/06 07:06:57;;;;;;;10.63;6.00;;;;;;;-143.84;87.18;45184.25;5108084;28;20441;-75
2022/12/06 07:09:24;;;;;;;18.07;7.80;;;;;;;-143.84;87.28;45216.63;5110529;28;20487;-75
2022/12/06 07:11:53;;;;;;;16.63;6.13;;;;;;;-143.84;87.16;45212.84;5112445;28;20953;-75
2022/12/06 07:14:20;;;;;;;15.47;6.53;;;;;;;-143.84;87.17;45220.44;5112037;28;20517;-75
2022/12/06 07:16:48;;;;;;;12.93;5.10;;;;;;;-143.84;87.27;45224.25;5112675;28;20443;-75
2022/12/06 07:19:15;;;;;;;24.20;4.80;;;;;;;-143.84;87.36;45214.72;5112267;28;20443;-74
2022/12/06 07:21:42;;;;;;;5.70;3.53;;;;;;;-143.84;87.30;45205.22;5112259;28;20440;-74
2022/12/06 07:24:09;;;;;;;5.73;4.23;;;;;;;-143.84;87.53;45222.34;5112073;28;20505;-76
2022/12/06 07:26:36;;;;;;;4.37;3.73;;;;;;;-143.84;87.47;45224.25;5112055;28;20482;-75
2022/12/06 07:29:05;;;;;;;12.40;3.73;;;;;;;-143.84;87.16;45247.09;5112050;28;20503;-74
2022/12/06 07:31:34;;;;;;;5.00;2.93;;;;;;;-143.84;86.86;45218.53;5112207;28;20446;-74
2022/12/06 07:34:02;;;;;;;3.63;2.93;;;;;;;-143.84;86.69;45231.88;5111875;28;20443;-74
2022/12/06 07:36:31;;;;;;;9.60;3.60;;;;;;;-143.84;86.62;45178.56;5112003;28;20444;-74
2022/12/06 07:39:00;;;;;;;9.60;3.33;;;;;;;-143.84;86.49;45214.72;5112467;28;20448;-75
2022/12/06 07:47:01;;;;;;;4.33;3.43;;;;;;;-143.84;86.37;45212.84;5112084;28;20483;-74
2022/12/06 07:49:29;;;;;;;4.30;2.90;;;;;;;-143.84;86.12;45197.59;5111623;28;20563;-74
2022/12/06 07:51:57;;;;;;;8.23;2.93;;;;;;;-143.84;86.17;45210.94;5111887;28;21124;-74
2022/12/06 07:54:25;;;;;;;6.93;3.67;;;;;;;-143.84;86.08;45229.97;5111980;28;20546;-74
2022/12/06 07:56:55;;;;;;;4.23;2.83;;;;;;;-143.84;85.90;45199.50;5111996;28;20533;-74
2022/12/06 07:59:23;;;;;;;3.07;2.77;;;;;;;-143.84;85.77;45222.34;5111274;28;20869;-75
2022/12/06 08:01:51;;;;;;;9.77;2.90;;;;;;;-143.84;85.90;45222.34;5111424;28;20446;-75
2022/12/06 08:04:19;;;;;;;6.13;2.93;;;;;;;-143.84;85.90;45214.72;5111514;28;20482;-74
2022/12/06 08:06:46;;;;;;;4.20;3.17;;;;;;;-143.84;85.94;45214.72;5111471;28;20436;-74
2022/12/06 08:09:13;;;;;;;3.87;2.80;;;;;;;-143.84;85.97;45212.84;5111314;28;20501;-75
2022/12/06 08:11:40;;;;;;;5.83;3.20;;;;;;;-143.84;86.05;45220.44;5111408;28;20475;-75
2022/12/06 08:14:08;;;;;;;3.23;2.80;;;;;;;-143.84;85.48;45239.50;5110893;28;20982;-75
2022/12/06 08:16:36;;;;;;;9.63;3.10;;;;;;;-143.84;85.69;45233.78;5111435;28;20436;-74
2022/12/06 08:19:03;;;;;;;7.40;3.40;;;;;;;-143.84;85.59;45214.72;5111385;28;20500;-75
2022/12/06 08:21:31;;;;;;;5.27;3.20;;;;;;;-143.84;85.54;45193.78;5110702;28;20867;-75
2022/12/06 08:23:58;;;;;;;4.53;3.00;;;;;;;-143.84;85.57;45226.16;5111667;28;20435;-75
2022/12/06 08:26:25;;;;;;;5.60;2.57;;;;;;;-143.84;85.42;45214.72;5111789;28;20976;-75
2022/12/06 08:28:52;;;;;;;9.60;3.10;;;;;;;-143.84;85.39;45235.69;5111381;28;20497;-74
2022/12/06 08:31:21;;;;;;;5.40;3.27;;;;;;;-143.84;85.43;45189.97;5111636;28;20475;-75
2022/12/06 08:33:50;;;;;;;8.80;3.20;;;;;;;-143.84;85.25;45243.31;5111868;28;20988;-75
2022/12/06 08:36:21;;;;;;;2.33;2.17;;;;;;;-143.84;84.97;45201.41;5112066;28;20447;-74
2022/12/06 08:38:49;;;;;;;2.70;2.50;;;;;;;-143.84;84.74;45197.59;5111760;28;20488;-75
2022/12/06 08:44:01;;;;;;;6.40;2.47;;;;;;;-143.84;84.19;45212.84;5111728;28;20427;-75
2022/12/06 08:46:30;;;;;;;4.00;2.67;;;;;;;-143.84;84.20;45216.63;5110788;28;20941;-75
2022/12/06 08:49:00;;;;;;;2.60;2.40;;;;;;;-143.84;84.44;45224.25;5111648;28;20434;-77
2022/12/06 08:51:27;;;;;;;4.20;2.33;;;;;;;-143.84;84.28;45222.34;5111305;28;20465;-76
2022/12/06 08:53:56;;;;;;;2.50;2.30;;;;;;;-143.84;84.17;45201.41;5111249;28;20447;-76
2022/12/06 08:56:24;;;;;;;5.23;2.47;;;;;;;-143.84;84.39;45237.59;5111571;28;20431;-76
2022/12/06 08:58:53;;;;;;;7.00;2.53;;;;;;;-143.84;84.26;45222.34;5110815;28;20445;-76
2022/12/06 09:01:22;;;;;;;6.90;2.90;;;;;;;-143.84;84.23;45226.16;5111201;28;20517;-76
2022/12/06 09:03:49;;;;;;;5.50;2.37;;;;;;;-143.84;84.24;45231.88;5111242;28;20466;-76
2022/12/06 09:06:19;;;;;;;3.10;2.40;;;;;;;-143.84;84.49;45161.41;5111214;28;20608;-76
2022/12/06 09:08:47;;;;;;;3.13;2.50;;;;;;;-143.84;84.38;45228.06;5110955;28;20927;-76
2022/12/06 09:11:15;;;;;;;3.73;2.83;;;;;;;-143.84;83.89;45229.97;5111074;28;20508;-76
2022/12/06 09:13:43;;;;;;;3.60;2.80;;;;;;;-143.84;83.95;45216.63;5110794;28;20437;-76
2022/12/06 09:16:12;;;;;;;5.20;2.57;;;;;;;-143.84;83.75;45226.16;5110612;28;20435;-75
2022/12/06 09:18:39;;;;;;;4.47;3.20;;;;;;;-143.84;83.55;45237.59;5110948;28;20589;-76
2022/12/06 09:21:07;;;;;;;6.50;2.60;;;;;;;-143.84;83.73;45212.84;5110855;28;20425;-76
2022/12/06 09:23:36;;;;;;;3.20;2.67;;;;;;;-143.84;83.58;45233.78;5110442;28;20443;-76
2022/12/06 09:26:05;;;;;;;6.10;3.07;;;;;;;-143.84;83.69;45216.63;5110460;28;20461;-76
2022/12/06 09:28:34;;;;;;;3.10;2.53;;;;;;;-143.84;83.35;45214.72;5110023;28;20434;-76
2022/12/06 09:31:02;;;;;;;3.17;2.87;;;;;;;-143.84;83.18;45228.06;5110210;28;20499;-76
2022/12/06 09:33:29;;;;;;;2.53;2.33;;;;;;;-143.84;83.41;45212.84;5110732;28;20539;-76
2022/12/06 09:35:57;;;;;;;7.13;2.57;;;;;;;-143.84;83.55;45220.44;5111267;28;20504;-76
2022/12/06 09:38:29;;;;;;;4.10;2.47;;;;;;;-143.84;83.55;45216.63;5110549;28;20443;-76
2022/12/06 09:41:08;;;;;;;2.47;2.27;;;;;;;-143.84;83.64;45199.50;5110922;28;20440;-76
2022/12/06 09:43:49;;;;;;;2.53;2.33;;;;;;;-143.84;83.55;45231.88;5110184;28;20507;-76
2022/12/06 09:46:38;;;;;;;4.50;2.23;;;;;;;-143.84;82.97;45241.41;5110489;28;20435;-76
2022/12/06 09:49:28;;;;;;;3.90;2.47;;;;;;;-143.84;83.07;45222.34;5110688;28;20432;-76
2022/12/06 09:52:27;;;;;;;6.23;1.70;;;;;;;-143.84;83.32;45218.53;5110409;28;20468;-76
2022/12/06 09:55:15;;;;;;;3.83;2.00;;;;;;;-143.84;83.19;45214.72;5076891;28;20827;-75
2022/12/06 09:57:50;;;;;;;2.33;2.17;;;;;;;-143.84;83.25;45214.72;5110026;28;20448;-77
2022/12/06 10:00:21;;;;;;;3.83;2.50;;;;;;;-143.84;83.25;45228.06;5108813;28;20956;-76
2022/12/06 10:03:14;;;;;;;3.80;3.40;;;;;;;-143.84;83.53;45222.34;5089690;28;20448;-76
2022/12/06 10:05:56;;;;;;;3.57;2.53;;;;;;;-143.84;83.47;45224.25;5089801;28;20934;-76
2022/12/06 10:08:34;;;;;;;9.07;1.93;;;;;;;-143.84;83.61;45228.06;5089702;28;20451;-76
2022/12/06 10:11:15;;;;;;;4.40;2.57;;;;;;;-143.84;83.54;45188.06;5089782;28;21378;-76
2022/12/06 10:13:57;;;;;;;5.97;2.70;;;;;;;-143.84;83.29;45237.59;5090126;28;20435;-76
2022/12/06 10:16:36;;;;;;;12.03;6.17;;;;;;;-143.84;83.29;45209.03;5089888;28;20440;-75
2022/12/06 10:19:18;;;;;;;4.80;3.50;;;;;;;-143.84;83.29;45207.13;5089356;28;21386;-76
2022/12/06 10:22:00;;;;;;;7.73;3.93;;;;;;;-143.84;83.89;45222.34;5089760;28;20824;-75
2022/12/06 10:24:48;;;;;;;18.63;2.50;;;;;;;-143.84;83.52;45229.97;5089514;28;20437;-76
2022/12/06 10:27:23;;;;;;;25.47;3.00;;;;;;;-143.84;83.63;45226.16;5100511;28;20543;-76
2022/12/06 10:29:57;;;;;;;4.97;2.30;;;;;;;-143.84;83.68;45216.63;5110058;28;20439;-76
2022/12/06 10:32:38;;;;;;;4.50;2.70;;;;;;;-143.84;83.70;45228.06;5110475;28;20451;-76
2022/12/06 10:35:17;;;;;;;5.83;2.40;;;;;;;-143.84;83.68;45207.13;5110005;28;20496;-75
2022/12/06 10:37:57;;;;;;;5.87;3.13;;;;;;;-143.84;83.50;45224.25;5109930;28;20436;-74
2022/12/06 10:40:29;;;;;;;2.83;2.47;;;;;;;-143.84;83.96;45235.69;5109796;28;20440;-76
2022/12/06 10:43:04;;;;;;;4.63;3.03;;;;;;;-143.84;83.72;45228.06;5109509;28;20437;-75
2022/12/06 10:48:29;;;;;;;3.30;2.33;;;;;;;-143.84;83.99;45212.84;5114030;28;20458;-76
2022/12/06 10:51:02;;;;;;;3.57;3.27;;;;;;;-143.84;83.62;45193.78;5113869;28;20479;-75
2022/12/06 10:53:34;;;;;;;2.90;2.37;;;;;;;-143.84;83.53;45220.44;5113624;28;20431;-76
2022/12/06 10:56:09;;;;;;;3.70;2.50;;;;;;;-143.84;83.59;45216.63;5101471;28;20511;-76
2022/12/06 10:58:43;;;;;;;2.80;2.43;;;;;;;-143.84;83.89;45216.63;5093571;28;20436;-75
2022/12/06 11:01:18;;;;;;;4.67;3.10;;;;;;;-143.84;84.09;45220.44;5092984;28;20930;-76
2022/12/06 11:03:59;;;;;;;4.83;2.87;;;;;;;-143.84;83.94;45220.44;5093703;28;20437;-76
2022/12/06 11:06:32;;;;;;;4.30;2.57;;;;;;;-143.84;83.95;45228.06;5093303;28;20953;-76
2022/12/06 11:09:12;;;;;;;4.50;2.23;;;;;;;-143.84;83.78;45209.03;5093646;28;20483;-76
2022/12/06 11:11:40;;;;;;;4.63;2.30;;;;;;;-143.84;83.78;45245.19;5093210;28;20484;-76
2022/12/06 11:14:20;;;;;;;5.30;2.67;;;;;;;-143.84;83.89;45222.34;5092908;28;20436;-76
2022/12/06 11:16:55;;;;;;;2.60;2.40;;;;;;;-143.84;83.61;45209.03;5092438;28;20444;-76
2022/12/06 11:19:29;;;;;;;2.23;2.13;;;;;;;-143.84;83.63;45216.63;5092049;28;20487;-73
2022/12/06 11:22:03;;;;;;;3.50;2.50;;;;;;;-143.84;83.48;45218.53;5092528;28;20447;-73
2022/12/06 11:24:35;;;;;;;6.30;3.03;;;;;;;-143.84;83.32;45205.22;5091852;28;20460;-73
2022/12/06 11:27:11;;;;;;;5.27;2.63;;;;;;;-143.84;83.36;45207.13;5091310;28;20546;-73
2022/12/06 11:29:38;;;;;;;2.93;2.60;;;;;;;-143.84;83.11;45214.72;5091696;28;21289;-73
2022/12/06 11:32:08;;;;;;;3.40;2.60;;;;;;;-143.84;83.32;45226.16;5091029;28;20481;-73
2022/12/06 11:34:42;;;;;;;8.90;2.30;;;;;;;-143.84;83.46;45220.44;5091567;28;20508;-73
2022/12/06 11:37:15;;;;;;;3.60;2.80;;;;;;;-143.84;83.38;45189.97;5091880;28;20442;-72
2022/12/06 11:39:43;;;;;;;5.00;2.87;;;;;;;-143.84;83.77;45231.88;5091483;28;20450;-73
2022/12/06 11:42:13;;;;;;;3.10;2.03;;;;;;;-143.84;83.61;45193.78;5091507;28;20455;-73
2022/12/06 11:44:43;;;;;;;3.30;2.47;;;;;;;-143.84;83.41;45228.06;5090851;28;20433;-73
2022/12/06 11:47:16;;;;;;;3.87;2.23;;;;;;;-143.84;83.62;45207.13;5091359;28;20454;-73
2022/12/06 11:49:45;;;;;;;2.93;2.70;;;;;;;-143.84;83.82;45237.59;5092129;28;20430;-73
2022/12/06 11:52:18;;;;;;;3.43;2.40;;;;;;;-143.84;83.73;45216.63;5091408;28;20488;-73
2022/12/06 11:54:51;;;;;;;11.93;3.60;;;;;;;-143.84;83.83;45212.84;5090642;28;20445;-73
2022/12/06 11:57:22;;;;;;;6.80;4.13;;;;;;;-143.84;84.06;45220.44;5091087;28;20511;-73
2022/12/06 12:00:15;;;;;;;16.23;3.67;;;;;;;-143.84;83.80;45216.63;5090625;28;20441;-73
2022/12/06 12:02:45;;;;;;;4.50;3.23;;;;;;;-143.84;83.60;45216.63;5096470;28;20509;-73
2022/12/06 12:05:19;;;;;;;11.03;2.90;;;;;;;-143.84;83.75;45209.03;5096487;28;20454;-73